ADDS METAR Data INFO
IDs: Format: Raw Decoded Include TAF

Data at: 1205 UTC 21 Jun 2018

KDFI 211153Z AUTO 08006KT 4SM BR CLR 18/17 A2986 RMK AO2 SLP110 T01830172 10183 20161 50004
KDFI 211138Z AUTO 08006KT 2 1/2SM BR CLR 18/17 A2986 RMK AO2 T01780172
KDFI 211120Z AUTO 08006KT 2SM BR CLR 18/17 A2986 RMK AO2 T01780172
KDFI 211053Z AUTO 10003KT 1 1/2SM BR CLR 17/17 A2987 RMK AO2 SLP111 T01720172
KDFI 210959Z AUTO 05003KT 1 3/4SM BR SCT037 17/16 A2985 RMK AO2 T01670161
KDFI 210953Z AUTO 05003KT 2 1/2SM BR SCT037 17/16 A2985 RMK AO2 SLP107 T01670161
KDFI 210927Z AUTO 00000KT 2SM BR FEW005 OVC038 17/16 A2986 RMK AO2 T01670156
KDFI 210902Z AUTO 00000KT 1 1/4SM BR FEW005 17/16 A2986 RMK AO2 T01670156
KDFI 210853Z AUTO 00000KT 2SM BR CLR 17/16 A2985 RMK AO2 SLP106 T01670156 55007
KDFI 210833Z AUTO 00000KT 2 1/2SM BR CLR 17/16 A2984 RMK AO2 T01670161
KDFI 210753Z AUTO 00000KT 3SM BR CLR 17/16 A2984 RMK AO2 SLP101 T01720161
KDFI 210653Z AUTO 04004KT 3SM BR FEW070 18/17 A2985 RMK AO2 SLP106 T01780167
KDFI 210553Z AUTO 00000KT 4SM BR FEW030 18/17 A2987 RMK AO2 SLP112 T01830167 10206 20183 56006
KDFI 210453Z AUTO 00000KT 6SM BR OVC030 19/17 A2987 RMK AO2 SLP112 T01890172 402330183
KDFI 210400Z AUTO 10004KT 7SM SCT010 BKN038 19/17 A2988 RMK AO2 T01890172
KDFI 210353Z AUTO 11004KT 8SM BKN010 OVC036 19/17 A2988 RMK AO2 SLP116 T01890172
KDFI 210342Z AUTO 13003KT 9SM BKN010 BKN037 19/17 A2988 RMK AO2 T01890172
KDFI 210253Z AUTO 05006KT 10SM FEW013 OVC031 19/17 A2989 RMK AO2 SLP118 T01940172 51016
KDFI 210243Z AUTO 04005KT 10SM SCT013 OVC031 19/17 A2989 RMK AO2 T01940172
KDFI 210153Z AUTO 04006KT 10SM OVC012 19/18 A2989 RMK AO2 SLP117 T01940178
KDFI 210053Z AUTO 05007KT 10SM OVC012 20/18 A2986 RMK AO2 SLP109 T02000178
KDFI 202353Z AUTO 05007KT 10SM OVC012 21/18 A2984 RMK AO2 SLP102 60000 T02060178 10233 20200 55002
KDFI 202253Z AUTO 02006KT 10SM OVC010 21/18 A2983 RMK AO2 SLP099 T02060183
KDFI 202225Z AUTO 04007KT 10SM OVC010 21/18 A2983 RMK AO2 T02110183
KDFI 202153Z AUTO 03008KT 10SM OVC009 21/18 A2985 RMK AO2 SLP105 T02060183
KDFI 202053Z AUTO 04010KT 8SM OVC009 21/18 A2985 RMK AO2 SLP103 60000 T02060183 58002
KDFI 202045Z AUTO 02008KT 8SM OVC009 21/18 A2985 RMK AO2 CIG 008V012 T02060183
KDFI 202033Z AUTO 04008KT 10SM OVC010 21/18 A2985 RMK AO2 CIG 008V012 T02060183
KDFI 201953Z AUTO 02009KT 8SM BKN009 OVC016 21/19 A2986 RMK AO2 SLP108 T02060189
KDFI 201950Z AUTO 01011KT 8SM BKN009 OVC016 21/19 A2986 RMK AO2
KDFI 201941Z AUTO 36011KT 8SM SCT009 OVC016 21/19 A2986 RMK AO2 T02110189
KDFI 201853Z AUTO 36007KT 10SM OVC016 23/19 A2985 RMK AO2 RAB1757E16 SLP105 P0000 T02280189
KDFI 201753Z AUTO 06003KT 10SM OVC018 22/19 A2986 RMK AO2 SLP108 T02220189 10228 20194 58005
KDFI 201653Z AUTO 06005KT 10SM BKN018 OVC026 21/18 A2987 RMK AO2 SLP111 T02110178
KDFI 201623Z AUTO 07008KT 10SM OVC016 21/17 A2987 RMK AO2 T02060172
KDFI 201613Z AUTO 05006KT 10SM OVC014 20/17 A2988 RMK AO2 T02000172
KDFI 201553Z AUTO 03008KT 10SM OVC015 20/18 A2989 RMK AO2 SLP117 T02000178
KDFI 201453Z AUTO 05006KT 9SM OVC015 20/18 A2988 RMK AO2 SLP113 T02000183 52001
KDFI 201415Z AUTO 02008KT 10SM OVC015 21/18 A2988 RMK AO2 T02060183
KDFI 201353Z AUTO 07004KT 10SM OVC012 21/18 A2988 RMK AO2 SLP114 T02110183
KDFI 201253Z AUTO 08007KT 10SM OVC011 21/18 A2987 RMK AO2 SLP112 T02110178
KDFI 201241Z AUTO 07005KT 10SM OVC013 21/18 A2987 RMK AO2 T02110178
KDFI 201153Z AUTO 04003KT 10SM SCT020 OVC025 21/18 A2987 RMK AO2 SLP113 70007 T02060183 10206 20194 50000
KDFI 201053Z AUTO 00000KT 10SM OVC020 20/18 A2988 RMK AO2 SLP115 T02000183
KDFI 201032Z AUTO 00000KT 10SM BKN021 BKN065 19/18 A2988 RMK AO2 T01940183
KDFI 201003Z AUTO 00000KT 10SM FEW023 19/18 A2988 RMK AO2 T01940178
KDFI 200953Z AUTO 00000KT 10SM BKN024 19/18 A2988 RMK AO2 SLP114 T01940178
KDFI 200853Z AUTO 06003KT 10SM FEW028 SCT080 OVC090 20/17 A2987 RMK AO2 SLP111 T02000172 56014
KDFI 200753Z AUTO 08003KT 10SM SCT043 OVC055 20/17 A2988 RMK AO2 SLP113 T02000172
KDFI 200653Z AUTO 08004KT 10SM BKN045 OVC055 20/17 A2989 RMK AO2 SLP117 T02000172
KDFI 200617Z AUTO 10004KT 10SM SCT022 BKN049 OVC055 19/17 A2990 RMK AO2 T01940172
KDFI 200600Z AUTO 13004KT 10SM BKN022 BKN050 OVC060 20/17 A2991 RMK AO2 T02000167
KDFI 200553Z AUTO 12003KT 10SM SCT022 BKN050 BKN065 19/17 A2991 RMK AO2 SLP126 60003 T01940172 10217 20183 56001
KDFI 200516Z AUTO 08005KT 10SM FEW020 SCT025 19/17 A2991 RMK AO2 T01940167
KDFI 200453Z AUTO 00000KT 10SM OVC021 20/17 A2992 RMK AO2 SLP128 T02000167 402610183
KDFI 200409Z AUTO 10003KT 10SM BKN018 19/17 A2991 RMK AO2 T01940167
KDFI 200353Z AUTO 05003KT 10SM CLR 19/16 A2991 RMK AO2 SLP123 T01940161
KDFI 200253Z AUTO 00000KT 10SM CLR 19/17 A2992 RMK AO2 SLP127 60003 T01940167 58002
KDFI 200213Z AUTO 06005KT 10SM SCT020 19/17 A2992 RMK AO2 T01940167
KDFI 200153Z AUTO 06004KT 10SM BKN020 19/17 A2992 RMK AO2 RAE0056 SLP129 P0000 T01940167
KDFI 200150Z AUTO 05004KT 10SM BKN020 19/17 A2993 RMK AO2 RAE0056 P0000
KDFI 200053Z AUTO 05008KT 10SM -RA FEW100 21/18 A2993 RMK AO2 RAB02 SLP129 P0003 T02060183